Time;durP1;ratioP1;P1;durP2;ratioP2;P2;SDS_P1;SDS_P2;PMS_P1;PMS_P2;Temp;Humidity;BMP_temperature;BMP_pressure;BME280_temperature;BME280_humidity;BME280_pressure;Samples;Min_cycle;Max_cycle;Signal;HPM_P1;HPM_P2
2022/12/02 00:01:21;;;;;;;25.88;14.70;;;;;;;;;;5034169;28;20152;-76
2022/12/02 00:03:48;;;;;;;30.77;13.68;;;;;;;;;;5033860;28;20091;-76
2022/12/02 00:06:35;;;;;;;28.65;15.55;;;;;;;;;;5036978;28;20531;-75
2022/12/02 00:09:20;;;;;;;29.92;15.80;;;;;;;;;;5034301;28;20143;-75
2022/12/02 00:11:47;;;;;;;29.80;14.20;;;;;;;;;;5035592;28;20045;-76
2022/12/02 00:14:20;;;;;;;32.63;13.75;;;;;;;;;;5032960;28;20041;-76
2022/12/02 00:16:47;;;;;;;37.83;17.30;;;;;;;;;;5034303;28;20029;-76
2022/12/02 00:19:13;;;;;;;31.65;14.85;;;;;;;;;;5036078;28;20072;-75
2022/12/02 00:21:39;;;;;;;28.20;13.57;;;;;;;;;;5035705;28;20402;-76
2022/12/02 00:24:05;;;;;;;27.83;12.63;;;;;;;;;;5034788;28;20033;-76
2022/12/02 00:26:31;;;;;;;27.17;11.82;;;;;;;;;;5034925;28;20046;-76
2022/12/02 00:28:57;;;;;;;30.27;14.85;;;;;;;;;;5032414;28;20136;-75
2022/12/02 00:31:23;;;;;;;38.20;15.77;;;;;;;;;;5049689;28;20179;-75
2022/12/02 00:33:49;;;;;;;29.95;14.77;;;;;;;;;;5033486;28;20138;-76
2022/12/02 00:36:15;;;;;;;29.45;14.13;;;;;;;;;;5051263;28;20120;-75
2022/12/02 00:38:41;;;;;;;30.83;14.05;;;;;;;;;;5034034;28;20044;-76
2022/12/02 00:41:08;;;;;;;28.00;13.43;;;;;;;;;;5036291;28;20103;-76
2022/12/02 00:46:31;;;;;;;25.30;12.15;;;;;;;;;;5035770;28;20054;-75
2022/12/02 00:48:58;;;;;;;27.42;13.32;;;;;;;;;;5034370;28;20081;-77
2022/12/02 00:51:24;;;;;;;27.38;13.32;;;;;;;;;;5041163;28;20362;-75
2022/12/02 00:53:50;;;;;;;28.67;11.32;;;;;;;;;;5032758;28;20050;-75
2022/12/02 00:56:16;;;;;;;23.90;10.35;;;;;;;;;;5050525;28;20033;-75
2022/12/02 00:58:42;;;;;;;24.15;11.45;;;;;;;;;;5034596;28;20048;-76
2022/12/02 01:01:08;;;;;;;28.75;13.50;;;;;;;;;;5034062;28;20053;-76
2022/12/02 01:03:34;;;;;;;24.35;11.90;;;;;;;;;;5035145;28;20052;-75
2022/12/02 01:06:00;;;;;;;30.67;13.98;;;;;;;;;;5034311;28;20041;-75
2022/12/02 01:08:27;;;;;;;22.25;11.55;;;;;;;;;;5041813;28;20044;-75
2022/12/02 01:10:53;;;;;;;21.52;10.55;;;;;;;;;;5035590;28;20546;-74
2022/12/02 01:13:20;;;;;;;20.27;9.10;;;;;;;;;;5032806;28;20041;-74
2022/12/02 01:15:46;;;;;;;22.27;12.20;;;;;;;;;;5035520;28;20520;-74
2022/12/02 01:18:12;;;;;;;21.38;10.45;;;;;;;;;;5033054;28;21281;-75
2022/12/02 01:20:38;;;;;;;30.92;12.73;;;;;;;;;;5035533;28;20117;-75
2022/12/02 01:23:04;;;;;;;25.35;13.32;;;;;;;;;;5027080;28;20588;-75
2022/12/02 01:25:30;;;;;;;25.58;11.65;;;;;;;;;;5031604;28;20041;-75
2022/12/02 01:27:56;;;;;;;22.10;11.68;;;;;;;;;;5031620;28;20055;-75
2022/12/02 01:30:22;;;;;;;25.95;12.63;;;;;;;;;;5034448;28;20057;-76
2022/12/02 01:32:48;;;;;;;22.48;10.73;;;;;;;;;;5033469;28;20052;-75
2022/12/02 01:35:15;;;;;;;28.15;12.20;;;;;;;;;;5033835;28;20037;-74
2022/12/02 01:37:41;;;;;;;20.55;11.73;;;;;;;;;;5050175;28;20052;-75
2022/12/02 01:40:08;;;;;;;18.38;8.95;;;;;;;;;;5054193;28;20141;-74
2022/12/02 01:42:34;;;;;;;22.20;11.73;;;;;;;;;;5036717;28;20045;-76
2022/12/02 01:45:00;;;;;;;24.33;12.07;;;;;;;;;;5035260;28;20045;-75
2022/12/02 01:47:26;;;;;;;22.15;9.70;;;;;;;;;;5035672;28;20034;-75
2022/12/02 01:49:54;;;;;;;24.33;12.15;;;;;;;;;;5036137;28;20057;-75
2022/12/02 01:52:20;;;;;;;23.42;10.25;;;;;;;;;;5051410;28;20041;-74
2022/12/02 01:54:46;;;;;;;18.48;8.95;;;;;;;;;;5035814;28;20091;-75
2022/12/02 01:57:13;;;;;;;15.90;7.90;;;;;;;;;;5035379;28;20071;-75
2022/12/02 01:59:39;;;;;;;20.80;9.05;;;;;;;;;;5033151;28;20052;-75
2022/12/02 02:02:24;;;;;;;27.25;12.15;;;;;;;;;;5050970;28;20049;-75
2022/12/02 02:04:51;;;;;;;18.38;8.57;;;;;;;;;;5044800;28;20041;-74
2022/12/02 02:07:17;;;;;;;16.05;8.55;;;;;;;;;;5036343;28;20120;-76
2022/12/02 02:09:43;;;;;;;22.33;10.85;;;;;;;;;;5053339;28;20077;-76
2022/12/02 02:12:09;;;;;;;24.38;11.85;;;;;;;;;;5038028;28;20049;-75
2022/12/02 02:14:35;;;;;;;24.67;13.25;;;;;;;;;;5034335;28;20052;-74
2022/12/02 02:17:01;;;;;;;26.83;13.48;;;;;;;;;;5035527;28;20056;-75
2022/12/02 02:19:27;;;;;;;23.00;11.32;;;;;;;;;;5055277;28;20029;-75
2022/12/02 02:21:55;;;;;;;24.33;12.70;;;;;;;;;;5040622;28;20045;-76
2022/12/02 02:24:21;;;;;;;26.17;12.27;;;;;;;;;;5041612;28;20040;-74
2022/12/02 02:26:47;;;;;;;16.25;7.05;;;;;;;;;;5055823;28;20057;-75
2022/12/02 02:29:13;;;;;;;25.15;11.80;;;;;;;;;;5042593;28;20033;-75
2022/12/02 02:31:39;;;;;;;26.27;13.00;;;;;;;;;;5041054;28;20092;-75
2022/12/02 02:34:05;;;;;;;22.92;9.88;;;;;;;;;;5039361;28;20164;-74
2022/12/02 02:36:32;;;;;;;28.05;13.88;;;;;;;;;;5037629;28;20046;-74
2022/12/02 02:38:58;;;;;;;24.63;12.40;;;;;;;;;;5031066;28;20077;-75
2022/12/02 02:41:25;;;;;;;24.98;13.13;;;;;;;;;;5046521;28;20068;-75
2022/12/02 02:43:51;;;;;;;31.40;14.25;;;;;;;;;;5031537;28;20566;-76
2022/12/02 02:46:17;;;;;;;27.50;13.23;;;;;;;;;;5029173;28;20508;-75
2022/12/02 02:48:44;;;;;;;25.02;10.68;;;;;;;;;;5030824;28;20112;-75
2022/12/02 02:51:11;;;;;;;22.33;10.57;;;;;;;;;;5027669;28;20234;-75
2022/12/02 02:53:38;;;;;;;27.83;13.77;;;;;;;;;;5046783;28;20971;-75
2022/12/02 02:56:04;;;;;;;34.22;15.35;;;;;;;;;;5032699;28;20050;-74
2022/12/02 02:58:32;;;;;;;30.63;13.70;;;;;;;;;;5029689;28;20116;-75
2022/12/02 03:01:12;;;;;;;40.50;15.13;;;;;;;;;;5030860;28;20048;-75
2022/12/02 03:03:41;;;;;;;33.72;16.05;;;;;;;;;;5032068;28;20409;-77
2022/12/02 03:06:07;;;;;;;37.42;16.13;;;;;;;;;;5031424;28;20037;-76
2022/12/02 03:08:34;;;;;;;30.48;15.27;;;;;;;;;;5032073;28;20042;-76
2022/12/02 03:11:01;;;;;;;20.77;10.68;;;;;;;;;;5038850;28;20095;-75
2022/12/02 03:13:29;;;;;;;17.92;9.98;;;;;;;;;;5032983;28;20049;-75
2022/12/02 03:15:55;;;;;;;26.77;13.00;;;;;;;;;;5036565;28;20049;-75
2022/12/02 03:18:21;;;;;;;26.85;13.43;;;;;;;;;;5031996;28;20147;-74
2022/12/02 03:20:48;;;;;;;22.20;10.80;;;;;;;;;;5041139;28;20049;-76
2022/12/02 03:23:14;;;;;;;34.55;16.13;;;;;;;;;;5035609;28;20156;-76
2022/12/02 03:25:40;;;;;;;31.77;15.18;;;;;;;;;;5033987;28;20127;-75
2022/12/02 03:28:06;;;;;;;39.67;18.02;;;;;;;;;;5034168;28;20053;-75
2022/12/02 03:30:33;;;;;;;32.33;15.32;;;;;;;;;;5033868;28;20946;-75
2022/12/02 03:32:59;;;;;;;28.15;12.45;;;;;;;;;;5036819;28;20046;-75
2022/12/02 03:35:25;;;;;;;36.47;15.32;;;;;;;;;;5035354;28;20037;-75
2022/12/02 03:37:52;;;;;;;39.60;19.25;;;;;;;;;;5052059;28;20050;-75
2022/12/02 03:40:18;;;;;;;27.17;12.40;;;;;;;;;;5050001;28;20565;-75
2022/12/02 03:42:44;;;;;;;36.75;15.20;;;;;;;;;;5030199;28;20060;-74
2022/12/02 03:45:11;;;;;;;43.78;16.35;;;;;;;;;;5035802;28;20041;-76
2022/12/02 03:47:37;;;;;;;38.65;18.55;;;;;;;;;;5033024;28;20041;-76
2022/12/02 03:50:03;;;;;;;26.42;11.13;;;;;;;;;;5034523;28;20045;-75
2022/12/02 03:52:29;;;;;;;36.92;17.38;;;;;;;;;;5036028;28;20080;-75
2022/12/02 03:54:56;;;;;;;29.08;15.32;;;;;;;;;;5035280;28;20050;-75
2022/12/02 03:57:22;;;;;;;39.22;17.23;;;;;;;;;;5033283;28;20064;-75
2022/12/02 03:59:48;;;;;;;38.03;17.15;;;;;;;;;;5033231;28;20531;-75
2022/12/02 04:02:14;;;;;;;36.92;16.05;;;;;;;;;;5034012;28;20030;-75
2022/12/02 04:04:40;;;;;;;42.95;15.00;;;;;;;;;;5051418;28;20124;-75
2022/12/02 04:07:06;;;;;;;30.58;16.25;;;;;;;;;;5034456;28;20111;-75
2022/12/02 04:09:32;;;;;;;27.27;13.32;;;;;;;;;;5032490;28;20045;-76
2022/12/02 04:11:58;;;;;;;18.67;10.57;;;;;;;;;;5035740;28;20052;-75
2022/12/02 04:14:25;;;;;;;28.05;13.25;;;;;;;;;;5048845;28;20037;-75
2022/12/02 04:16:51;;;;;;;33.15;14.50;;;;;;;;;;5031868;28;20049;-76
2022/12/02 04:19:17;;;;;;;30.85;16.65;;;;;;;;;;5035343;28;20067;-76
2022/12/02 04:21:43;;;;;;;33.20;17.83;;;;;;;;;;5050199;28;20095;-76
2022/12/02 04:24:09;;;;;;;32.90;16.00;;;;;;;;;;5034972;28;20041;-76
2022/12/02 04:26:35;;;;;;;31.77;16.52;;;;;;;;;;5034102;28;20151;-76
2022/12/02 04:29:01;;;;;;;24.65;13.65;;;;;;;;;;5035932;28;20049;-75
2022/12/02 04:31:27;;;;;;;38.70;17.08;;;;;;;;;;5048922;28;20041;-75
2022/12/02 04:33:53;;;;;;;31.58;15.30;;;;;;;;;;5034894;28;20071;-75
2022/12/02 04:36:20;;;;;;;35.60;16.42;;;;;;;;;;5034806;28;20049;-75
2022/12/02 04:38:46;;;;;;;36.08;16.63;;;;;;;;;;5033865;28;20567;-74
2022/12/02 04:41:12;;;;;;;36.47;16.83;;;;;;;;;;5035524;28;20502;-75
2022/12/02 04:43:38;;;;;;;42.85;18.75;;;;;;;;;;5034271;28;23235;-75
2022/12/02 04:46:04;;;;;;;35.15;16.52;;;;;;;;;;5034872;28;20073;-74
2022/12/02 04:48:30;;;;;;;33.10;15.95;;;;;;;;;;5030991;28;20051;-75
2022/12/02 04:50:56;;;;;;;35.25;16.08;;;;;;;;;;5036608;28;20077;-75
2022/12/02 04:53:22;;;;;;;34.80;14.45;;;;;;;;;;5035599;28;20164;-75
2022/12/02 04:55:48;;;;;;;29.80;14.23;;;;;;;;;;5032265;28;20088;-74
2022/12/02 04:58:14;;;;;;;37.03;17.80;;;;;;;;;;5033910;28;20042;-75
2022/12/02 05:00:41;;;;;;;28.42;13.45;;;;;;;;;;5033506;28;20045;-75
2022/12/02 05:03:07;;;;;;;37.80;14.63;;;;;;;;;;5032203;28;20641;-74
2022/12/02 05:05:33;;;;;;;37.70;16.05;;;;;;;;;;5034553;28;20050;-75
2022/12/02 05:07:59;;;;;;;23.38;13.30;;;;;;;;;;5032665;28;20111;-75
2022/12/02 05:10:25;;;;;;;34.08;14.10;;;;;;;;;;5034483;28;20037;-75
2022/12/02 05:12:51;;;;;;;42.60;20.73;;;;;;;;;;5037415;28;20057;-75
2022/12/02 05:15:18;;;;;;;35.20;17.15;;;;;;;;;;5036019;28;20475;-75
2022/12/02 05:17:45;;;;;;;38.67;18.48;;;;;;;;;;5029776;28;20267;-75
2022/12/02 05:20:11;;;;;;;36.42;18.45;;;;;;;;;;5030650;28;20065;-75
2022/12/02 05:22:37;;;;;;;40.83;17.45;;;;;;;;;;5030869;28;20037;-75
2022/12/02 05:25:05;;;;;;;41.03;17.65;;;;;;;;;;5031918;28;20148;-75
2022/12/02 05:27:31;;;;;;;38.20;16.85;;;;;;;;;;5029965;28;20157;-75
2022/12/02 05:29:57;;;;;;;39.90;16.65;;;;;;;;;;5034838;28;20643;-75
2022/12/02 05:32:23;;;;;;;36.17;17.35;;;;;;;;;;5031039;28;20033;-75
2022/12/02 05:34:49;;;;;;;32.83;14.57;;;;;;;;;;5034368;28;20046;-76
2022/12/02 05:37:15;;;;;;;35.05;16.20;;;;;;;;;;5033711;28;20053;-76
2022/12/02 05:39:41;;;;;;;43.47;17.73;;;;;;;;;;5034633;28;20048;-76
2022/12/02 05:42:11;;;;;;;39.03;15.60;;;;;;;;;;5026120;28;20045;-75
2022/12/02 05:44:38;;;;;;;36.13;18.65;;;;;;;;;;5032842;28;20051;-75
2022/12/02 05:47:11;;;;;;;39.60;18.85;;;;;;;;;;5030267;28;20042;-76
2022/12/02 05:49:38;;;;;;;35.45;13.98;;;;;;;;;;5033038;28;20491;-76
2022/12/02 05:52:12;;;;;;;21.73;11.52;;;;;;;;;;5029922;28;20038;-75
2022/12/02 05:54:38;;;;;;;35.97;16.13;;;;;;;;;;5046676;28;20124;-76
2022/12/02 05:57:07;;;;;;;35.85;16.45;;;;;;;;;;5031046;28;20041;-75
2022/12/02 05:59:33;;;;;;;42.03;16.65;;;;;;;;;;5048077;28;20038;-76
2022/12/02 06:01:59;;;;;;;36.85;15.43;;;;;;;;;;5035081;28;20056;-75
2022/12/02 06:04:26;;;;;;;37.13;16.77;;;;;;;;;;5033477;28;20476;-76
2022/12/02 06:06:54;;;;;;;31.83;13.10;;;;;;;;;;5031767;28;20480;-76
2022/12/02 06:09:23;;;;;;;38.05;15.52;;;;;;;;;;5031585;28;20639;-75
2022/12/02 06:11:49;;;;;;;46.33;17.92;;;;;;;;;;5031739;28;20099;-76
2022/12/02 06:14:19;;;;;;;37.95;18.05;;;;;;;;;;5045160;28;20095;-74
2022/12/02 06:16:48;;;;;;;36.20;17.50;;;;;;;;;;5030646;28;20125;-74
2022/12/02 06:19:33;;;;;;;34.63;15.60;;;;;;;;;;5030604;28;20041;-75
2022/12/02 06:22:01;;;;;;;38.00;15.15;;;;;;;;;;5028689;28;20464;-76
2022/12/02 06:24:28;;;;;;;30.10;13.63;;;;;;;;;;5031159;28;20053;-74
2022/12/02 06:26:56;;;;;;;41.08;17.48;;;;;;;;;;5031786;28;20053;-75
2022/12/02 06:29:22;;;;;;;41.03;17.95;;;;;;;;;;5034094;28;20561;-76
2022/12/02 06:31:48;;;;;;;46.80;19.30;;;;;;;;;;5032006;28;20124;-75
2022/12/02 06:34:34;;;;;;;37.08;16.40;;;;;;;;;;5034505;28;20096;-75
2022/12/02 06:37:02;;;;;;;40.45;17.67;;;;;;;;;;5033263;28;20048;-75
2022/12/02 06:39:28;;;;;;;37.80;14.75;;;;;;;;;;5030043;28;20082;-75
2022/12/02 06:41:54;;;;;;;36.17;17.95;;;;;;;;;;5050221;28;20163;-75
2022/12/02 06:47:26;;;;;;;31.63;14.50;;;;;;;;;;5032523;28;20530;-76
2022/12/02 06:49:52;;;;;;;36.97;18.45;;;;;;;;;;5033203;28;20053;-76
2022/12/02 06:52:22;;;;;;;28.77;12.57;;;;;;;;;;5026904;28;22118;-75
2022/12/02 06:54:48;;;;;;;30.10;12.98;;;;;;;;;;5031817;28;20413;-74
2022/12/02 06:57:18;;;;;;;33.65;15.52;;;;;;;;;;5026743;28;20042;-75
2022/12/02 06:59:46;;;;;;;33.50;16.58;;;;;;;;;;5030583;28;20056;-74
2022/12/02 07:02:23;;;;;;;43.67;19.50;;;;;;;;;;5044494;28;20049;-75
2022/12/02 07:04:50;;;;;;;35.75;16.45;;;;;;;;;;5029840;28;20046;-75
2022/12/02 07:07:16;;;;;;;46.35;21.85;;;;;;;;;;5031678;28;20042;-74
2022/12/02 07:09:46;;;;;;;43.70;18.77;;;;;;;;;;5033100;28;20115;-73
2022/12/02 07:12:15;;;;;;;42.65;18.95;;;;;;;;;;5030900;28;20059;-73
2022/12/02 07:14:51;;;;;;;33.40;17.95;;;;;;;;;;5034805;28;20791;-74
2022/12/02 07:17:31;;;;;;;30.95;13.77;;;;;;;;;;5032712;28;20045;-74
2022/12/02 07:20:12;;;;;;;44.40;16.90;;;;;;;;;;5031358;28;21169;-75
2022/12/02 07:22:40;;;;;;;42.20;16.30;;;;;;;;;;5033936;28;20050;-75
2022/12/02 07:25:09;;;;;;;36.25;17.05;;;;;;;;;;5031956;28;20467;-73
2022/12/02 07:27:37;;;;;;;23.10;11.27;;;;;;;;;;5032100;28;20045;-73
2022/12/02 07:30:03;;;;;;;37.50;18.30;;;;;;;;;;5032490;28;20044;-73
2022/12/02 07:32:29;;;;;;;30.48;14.05;;;;;;;;;;5034743;28;21102;-74
2022/12/02 07:34:56;;;;;;;33.40;17.30;;;;;;;;;;5033592;28;20488;-73
2022/12/02 07:37:22;;;;;;;40.92;18.35;;;;;;;;;;5034154;28;20049;-74
2022/12/02 07:39:48;;;;;;;24.58;12.20;;;;;;;;;;5047801;28;20219;-74
2022/12/02 07:42:14;;;;;;;27.33;12.23;;;;;;;;;;5029850;28;20670;-72
2022/12/02 07:44:41;;;;;;;42.13;18.23;;;;;;;;;;5028187;28;20049;-73
2022/12/02 07:47:07;;;;;;;38.67;16.20;;;;;;;;;;5032212;28;20115;-74
2022/12/02 07:49:33;;;;;;;23.55;11.05;;;;;;;;;;5032596;28;20041;-73
2022/12/02 07:51:59;;;;;;;32.25;12.40;;;;;;;;;;5049488;28;20529;-73
2022/12/02 07:54:25;;;;;;;40.42;16.25;;;;;;;;;;5030570;28;20512;-73
2022/12/02 07:56:51;;;;;;;35.03;17.55;;;;;;;;;;5026740;28;20046;-74
2022/12/02 07:59:17;;;;;;;36.00;14.13;;;;;;;;;;5032882;28;20165;-74
2022/12/02 08:01:44;;;;;;;37.97;17.38;;;;;;;;;;5030151;28;20081;-73
2022/12/02 08:04:10;;;;;;;30.42;14.88;;;;;;;;;;5032840;28;22195;-73
2022/12/02 08:06:36;;;;;;;40.47;19.58;;;;;;;;;;5032760;28;20049;-73
2022/12/02 08:09:02;;;;;;;41.05;17.33;;;;;;;;;;5032424;28;20049;-74
2022/12/02 08:11:28;;;;;;;35.65;19.25;;;;;;;;;;5031494;28;20050;-74
2022/12/02 08:13:54;;;;;;;39.00;14.55;;;;;;;;;;5034169;28;20085;-75
2022/12/02 08:16:20;;;;;;;40.60;15.70;;;;;;;;;;5031681;28;20042;-75
2022/12/02 08:18:47;;;;;;;36.13;16.48;;;;;;;;;;5034076;28;20931;-74
2022/12/02 08:21:13;;;;;;;38.53;14.60;;;;;;;;;;5035399;28;20055;-74
2022/12/02 08:23:39;;;;;;;52.53;19.05;;;;;;;;;;5033474;28;20041;-76
2022/12/02 08:26:05;;;;;;;43.75;17.50;;;;;;;;;;5033278;28;20046;-74
2022/12/02 08:28:31;;;;;;;30.52;14.13;;;;;;;;;;5032953;28;20092;-73
2022/12/02 08:30:57;;;;;;;32.75;16.00;;;;;;;;;;5033606;28;20102;-75
2022/12/02 08:33:23;;;;;;;42.78;18.75;;;;;;;;;;5033854;28;20076;-76
2022/12/02 08:35:49;;;;;;;40.65;16.10;;;;;;;;;;5032362;28;20120;-76
2022/12/02 08:38:15;;;;;;;41.58;18.95;;;;;;;;;;5034772;28;20108;-75
2022/12/02 08:40:41;;;;;;;40.53;17.67;;;;;;;;;;5033139;28;20041;-75
2022/12/02 08:43:08;;;;;;;25.80;10.25;;;;;;;;;;5035488;28;20079;-76
2022/12/02 08:45:34;;;;;;;30.02;14.52;;;;;;;;;;5032242;28;20044;-77
2022/12/02 08:48:00;;;;;;;41.53;17.55;;;;;;;;;;5033149;28;20040;-77
2022/12/02 08:50:28;;;;;;;41.63;17.35;;;;;;;;;;5029696;28;20153;-76
2022/12/02 08:52:54;;;;;;;40.30;18.42;;;;;;;;;;5033187;28;20432;-78
2022/12/02 08:55:20;;;;;;;43.50;18.33;;;;;;;;;;5033535;28;20069;-77
2022/12/02 08:57:46;;;;;;;34.15;15.23;;;;;;;;;;5030931;28;20030;-77
2022/12/02 09:00:12;;;;;;;40.20;18.80;;;;;;;;;;5032095;28;20049;-76
2022/12/02 09:02:39;;;;;;;35.17;17.27;;;;;;;;;;5032279;28;20033;-77
2022/12/02 09:05:05;;;;;;;41.10;16.95;;;;;;;;;;5033575;28;20107;-76
2022/12/02 09:07:31;;;;;;;38.55;19.45;;;;;;;;;;5033063;28;20037;-78
2022/12/02 09:09:57;;;;;;;34.90;15.73;;;;;;;;;;5030996;28;20111;-76
2022/12/02 09:12:24;;;;;;;43.40;17.08;;;;;;;;;;5028295;28;20101;-75
2022/12/02 09:14:51;;;;;;;42.03;17.08;;;;;;;;;;5032297;28;20830;-74
2022/12/02 09:17:17;;;;;;;35.60;14.60;;;;;;;;;;5032842;28;20030;-74
2022/12/02 09:19:43;;;;;;;45.40;17.73;;;;;;;;;;5031511;28;20421;-74
2022/12/02 09:22:09;;;;;;;38.17;15.38;;;;;;;;;;5033057;28;20120;-75
2022/12/02 09:24:35;;;;;;;36.60;17.63;;;;;;;;;;5029049;28;20155;-75
2022/12/02 09:27:01;;;;;;;44.83;17.98;;;;;;;;;;5027554;28;20164;-75
2022/12/02 09:29:27;;;;;;;43.20;18.50;;;;;;;;;;5032741;28;20050;-76
2022/12/02 09:31:53;;;;;;;43.10;19.45;;;;;;;;;;5029132;28;20443;-76
2022/12/02 09:34:19;;;;;;;39.63;18.27;;;;;;;;;;5029291;28;20041;-75
2022/12/02 09:36:45;;;;;;;39.20;17.58;;;;;;;;;;5047734;28;20133;-75
2022/12/02 09:39:11;;;;;;;102.82;37.00;;;;;;;;;;5026464;28;20087;-75
2022/12/02 09:41:38;;;;;;;77.53;29.83;;;;;;;;;;5029887;28;20050;-74
2022/12/02 09:44:04;;;;;;;49.50;20.98;;;;;;;;;;5030977;28;20045;-75
2022/12/02 09:46:31;;;;;;;42.90;16.52;;;;;;;;;;5027888;28;20044;-74
2022/12/02 09:48:57;;;;;;;49.83;25.10;;;;;;;;;;5031573;28;20097;-74
2022/12/02 09:51:23;;;;;;;44.28;19.13;;;;;;;;;;5033381;28;20559;-74
2022/12/02 09:53:50;;;;;;;39.17;17.70;;;;;;;;;;5033158;28;20045;-74
2022/12/02 09:56:17;;;;;;;50.97;19.95;;;;;;;;;;5032879;28;20037;-75
2022/12/02 09:58:43;;;;;;;44.38;20.15;;;;;;;;;;5033392;28;20041;-73
2022/12/02 10:01:10;;;;;;;37.63;16.75;;;;;;;;;;5032276;28;20053;-75
2022/12/02 10:03:37;;;;;;;40.58;18.90;;;;;;;;;;5033659;28;20073;-74
2022/12/02 10:06:05;;;;;;;42.50;19.58;;;;;;;;;;5020118;28;20046;-75
2022/12/02 10:08:32;;;;;;;33.78;15.57;;;;;;;;;;5031074;28;20096;-74
2022/12/02 10:10:58;;;;;;;40.10;18.52;;;;;;;;;;5035862;28;20037;-74
2022/12/02 10:13:25;;;;;;;26.73;12.77;;;;;;;;;;5034411;28;20046;-75
2022/12/02 10:15:51;;;;;;;26.88;12.65;;;;;;;;;;5051850;28;20259;-74
2022/12/02 10:18:17;;;;;;;42.10;17.40;;;;;;;;;;5050573;28;20036;-74
2022/12/02 10:20:43;;;;;;;41.63;19.27;;;;;;;;;;5051650;28;20053;-74
2022/12/02 10:23:19;;;;;;;38.65;19.77;;;;;;;;;;5050514;28;20037;-74
2022/12/02 10:25:47;;;;;;;47.15;15.23;;;;;;;;;;5042478;28;20609;-74
2022/12/02 10:28:21;;;;;;;46.50;20.85;;;;;;;;;;5034305;28;20124;-74
2022/12/02 10:30:52;;;;;;;54.05;22.35;;;;;;;;;;5035660;28;20037;-74
2022/12/02 10:33:22;;;;;;;74.70;31.60;;;;;;;;;;5034061;28;20065;-75
2022/12/02 10:35:49;;;;;;;49.05;21.27;;;;;;;;;;5035641;28;20048;-74
2022/12/02 10:38:45;;;;;;;52.05;24.92;;;;;;;;;;5036782;28;20045;-74
2022/12/02 10:41:12;;;;;;;47.20;22.00;;;;;;;;;;5018737;28;20551;-75
2022/12/02 10:43:38;;;;;;;42.55;15.82;;;;;;;;;;5035839;28;20048;-74
2022/12/02 10:46:04;;;;;;;44.88;20.58;;;;;;;;;;5036765;28;20570;-74
2022/12/02 10:48:30;;;;;;;43.60;19.85;;;;;;;;;;5036079;28;20041;-74
2022/12/02 10:50:57;;;;;;;41.15;22.95;;;;;;;;;;5033314;28;20045;-74
2022/12/02 10:53:26;;;;;;;45.78;20.00;;;;;;;;;;5036380;28;20136;-75
2022/12/02 10:55:52;;;;;;;55.40;21.98;;;;;;;;;;5033900;28;20208;-75
2022/12/02 10:58:24;;;;;;;47.65;23.05;;;;;;;;;;5051684;28;20041;-75
2022/12/02 11:00:50;;;;;;;38.78;17.70;;;;;;;;;;5034641;28;20049;-74
2022/12/02 11:03:18;;;;;;;49.58;21.38;;;;;;;;;;5035338;28;20072;-74
2022/12/02 11:05:45;;;;;;;45.70;18.95;;;;;;;;;;5034191;28;20062;-75
2022/12/02 11:08:25;;;;;;;44.35;18.55;;;;;;;;;;5033341;28;20631;-74
2022/12/02 11:11:07;;;;;;;45.70;19.35;;;;;;;;;;5051861;28;20137;-75
2022/12/02 11:13:33;;;;;;;;;;;;;;;;;;5035875;28;20583;-75
2022/12/02 11:16:35;;;;;;;43.25;17.52;;;;;;;;;;5036577;28;19921;-75
2022/12/02 11:19:10;;;;;;;44.55;18.17;;;;;;;;;;4973501;28;20046;-73
2022/12/02 11:21:39;;;;;;;44.97;21.33;;;;;;;;;;5019962;28;20057;-75
2022/12/02 11:24:26;;;;;;;47.10;22.25;;;;;;;;;;5033703;28;20045;-75
2022/12/02 11:26:58;;;;;;;52.70;23.50;;;;;;;;;;5030961;28;20058;-74
2022/12/02 11:29:24;;;;;;;;;;;;;;;;;;5027270;28;20034;-75
2022/12/02 11:32:20;;;;;;;47.75;21.42;;;;;;;;;;5027777;28;20048;-75
2022/12/02 11:34:59;;;;;;;70.07;29.65;;;;;;;;;;5019536;28;20187;-74
2022/12/02 11:37:25;;;;;;;49.83;20.95;;;;;;;;;;5035062;28;20100;-76
2022/12/02 11:39:55;;;;;;;50.63;23.73;;;;;;;;;;5036309;28;20069;-76
2022/12/02 11:42:23;;;;;;;35.88;14.93;;;;;;;;;;5029728;28;20042;-74
2022/12/02 11:44:49;;;;;;;61.70;23.17;;;;;;;;;;5036489;28;20040;-74
2022/12/02 11:47:29;;;;;;;55.15;24.30;;;;;;;;;;5032002;28;20679;-75
2022/12/02 11:50:09;;;;;;;55.60;24.08;;;;;;;;;;5035694;28;20116;-75
2022/12/02 11:52:38;;;;;;;43.22;19.13;;;;;;;;;;5033617;28;22301;-76
2022/12/02 11:55:11;;;;;;;54.58;23.02;;;;;;;;;;5036544;28;20052;-75
2022/12/02 11:57:57;;;;;;;42.85;16.50;;;;;;;;;;5034553;28;20061;-76
2022/12/02 12:00:30;;;;;;;50.65;23.10;;;;;;;;;;5033575;28;20087;-75
2022/12/02 12:03:06;;;;;;;43.40;19.85;;;;;;;;;;5032275;28;20057;-76
2022/12/02 12:05:32;;;;;;;42.10;16.77;;;;;;;;;;5033574;28;20092;-74
2022/12/02 12:07:58;;;;;;;53.22;24.13;;;;;;;;;;5034071;28;20045;-74
2022/12/02 12:10:34;;;;;;;39.65;19.63;;;;;;;;;;5033698;28;20147;-75
2022/12/02 12:13:10;;;;;;;48.10;17.50;;;;;;;;;;5034674;28;20056;-75
2022/12/02 12:15:49;;;;;;;52.53;24.25;;;;;;;;;;5034938;28;20467;-74
2022/12/02 12:18:34;;;;;;;47.05;19.30;;;;;;;;;;5049766;28;20730;-74
2022/12/02 12:21:00;;;;;;;49.95;23.52;;;;;;;;;;5034653;28;20041;-74
2022/12/02 12:23:30;;;;;;;35.40;18.85;;;;;;;;;;5033242;28;20092;-74
2022/12/02 12:25:56;;;;;;;53.22;19.25;;;;;;;;;;5034819;28;20053;-75
2022/12/02 12:28:33;;;;;;;45.88;19.63;;;;;;;;;;5036137;28;20048;-76
2022/12/02 12:31:00;;;;;;;40.58;18.95;;;;;;;;;;5035484;28;20033;-73
2022/12/02 12:33:26;;;;;;;47.95;21.02;;;;;;;;;;5034986;28;20607;-75
2022/12/02 12:35:53;;;;;;;42.67;19.30;;;;;;;;;;5036087;28;20119;-75
2022/12/02 12:38:20;;;;;;;38.00;17.73;;;;;;;;;;5039336;28;20745;-74
2022/12/02 12:40:46;;;;;;;46.58;21.75;;;;;;;;;;5045758;28;20045;-71
2022/12/02 12:43:12;;;;;;;42.35;19.70;;;;;;;;;;5048572;28;20045;-74
2022/12/02 12:45:38;;;;;;;31.00;13.48;;;;;;;;;;5047941;28;20525;-75
2022/12/02 12:48:04;;;;;;;52.45;21.27;;;;;;;;;;5051290;28;20041;-74
2022/12/02 12:50:30;;;;;;;41.45;15.80;;;;;;;;;;5049744;28;21427;-76
2022/12/02 12:52:56;;;;;;;39.72;14.88;;;;;;;;;;5050023;28;20059;-74
2022/12/02 12:55:22;;;;;;;43.67;18.02;;;;;;;;;;5033465;28;20048;-73
2022/12/02 12:57:49;;;;;;;40.17;13.75;;;;;;;;;;5035915;28;20037;-73
2022/12/02 13:00:15;;;;;;;49.25;20.88;;;;;;;;;;5051027;28;20133;-76
2022/12/02 13:02:41;;;;;;;54.20;22.42;;;;;;;;;;5052660;28;20034;-74
2022/12/02 13:05:07;;;;;;;46.55;20.38;;;;;;;;;;5049090;28;20045;-75
2022/12/02 13:07:33;;;;;;;42.53;19.98;;;;;;;;;;5050100;28;20041;-75
2022/12/02 13:09:59;;;;;;;46.67;20.65;;;;;;;;;;5048257;28;20523;-74
2022/12/02 13:12:25;;;;;;;43.90;20.83;;;;;;;;;;5042914;28;20044;-75
2022/12/02 13:14:51;;;;;;;40.17;16.05;;;;;;;;;;5033751;28;20051;-74
2022/12/02 13:17:17;;;;;;;47.78;18.30;;;;;;;;;;5032396;28;20091;-74
2022/12/02 13:19:44;;;;;;;52.63;22.73;;;;;;;;;;5031269;28;20156;-74
2022/12/02 13:22:10;;;;;;;45.97;20.95;;;;;;;;;;5032029;28;20528;-74
2022/12/02 13:24:37;;;;;;;45.35;19.25;;;;;;;;;;5031538;28;20045;-74
2022/12/02 13:27:04;;;;;;;35.03;17.58;;;;;;;;;;5029428;28;20045;-74
2022/12/02 13:29:30;;;;;;;44.20;18.45;;;;;;;;;;5045269;28;20034;-74
2022/12/02 13:31:56;;;;;;;42.90;18.92;;;;;;;;;;5030006;28;20041;-74
2022/12/02 13:34:22;;;;;;;44.38;19.65;;;;;;;;;;5033593;28;20056;-74
2022/12/02 13:36:48;;;;;;;38.60;17.70;;;;;;;;;;5028553;28;20038;-73
2022/12/02 13:39:14;;;;;;;54.88;21.45;;;;;;;;;;5031560;28;20160;-75
2022/12/02 13:41:40;;;;;;;48.80;21.60;;;;;;;;;;5031372;28;20068;-75
2022/12/02 13:44:06;;;;;;;26.05;13.25;;;;;;;;;;5031908;28;20048;-73
2022/12/02 13:46:32;;;;;;;44.58;19.98;;;;;;;;;;5031677;28;20063;-73
2022/12/02 13:48:58;;;;;;;37.50;17.60;;;;;;;;;;5050035;28;20546;-74
2022/12/02 13:51:24;;;;;;;40.55;19.17;;;;;;;;;;5028123;28;20045;-74
2022/12/02 13:53:50;;;;;;;53.70;21.85;;;;;;;;;;5029531;28;20048;-75
2022/12/02 13:56:16;;;;;;;51.80;23.90;;;;;;;;;;5033907;28;20041;-73
2022/12/02 13:58:42;;;;;;;33.78;15.13;;;;;;;;;;5035028;28;20526;-74
2022/12/02 14:01:09;;;;;;;39.38;17.35;;;;;;;;;;5033304;28;20073;-73
2022/12/02 14:03:35;;;;;;;49.20;19.25;;;;;;;;;;5035300;28;20183;-74
2022/12/02 14:06:01;;;;;;;41.78;19.65;;;;;;;;;;5033219;28;20049;-73
2022/12/02 14:08:27;;;;;;;29.17;12.30;;;;;;;;;;5032363;28;20041;-73
2022/12/02 14:10:53;;;;;;;39.53;17.08;;;;;;;;;;5032124;28;20052;-74
2022/12/02 14:13:19;;;;;;;24.23;12.55;;;;;;;;;;5031248;28;20038;-72
2022/12/02 14:15:46;;;;;;;36.63;17.52;;;;;;;;;;5048905;28;20724;-73
2022/12/02 14:18:12;;;;;;;37.42;16.67;;;;;;;;;;5035312;28;20052;-74
2022/12/02 14:20:38;;;;;;;47.05;19.48;;;;;;;;;;5035307;28;20041;-74
2022/12/02 14:23:07;;;;;;;37.97;16.85;;;;;;;;;;5026699;28;20042;-73
2022/12/02 14:25:33;;;;;;;39.33;14.88;;;;;;;;;;5031779;28;20677;-73
2022/12/02 14:27:59;;;;;;;24.00;11.75;;;;;;;;;;5034265;28;20092;-72